createdAt,value
2023-01-24T00:01:16.767Z,100.00
2023-01-24T00:03:44.231Z,100.00
2023-01-24T00:06:18.094Z,100.00
2023-01-24T00:08:45.221Z,100.00
2023-01-24T00:11:14.405Z,100.00
2023-01-24T00:13:42.694Z,100.00
2023-01-24T00:16:13.306Z,100.00
2023-01-24T00:18:42.434Z,100.00
2023-01-24T00:21:19.257Z,100.00
2023-01-24T00:23:48.936Z,100.00
2023-01-24T00:26:17.675Z,100.00
2023-01-24T00:28:45.200Z,100.00
2023-01-24T00:31:13.444Z,100.00
2023-01-24T00:33:41.062Z,100.00
2023-01-24T00:36:09.160Z,100.00
2023-01-24T00:38:36.717Z,100.00
2023-01-24T00:41:04.331Z,100.00
2023-01-24T00:43:32.651Z,100.00
2023-01-24T00:46:00.454Z,100.00
2023-01-24T00:48:28.272Z,100.00
2023-01-24T00:50:55.488Z,100.00
2023-01-24T00:53:23.197Z,100.00
2023-01-24T00:55:51.808Z,100.00
2023-01-24T00:58:19.922Z,100.00
2023-01-24T01:00:47.700Z,100.00
2023-01-24T01:03:17.714Z,100.00
2023-01-24T01:05:45.755Z,100.00
2023-01-24T01:08:13.712Z,100.00
2023-01-24T01:10:42.027Z,100.00
2023-01-24T01:13:13.646Z,100.00
2023-01-24T01:15:41.915Z,100.00
2023-01-24T01:18:09.328Z,100.00
2023-01-24T01:20:37.263Z,100.00
2023-01-24T01:23:05.838Z,100.00
2023-01-24T01:25:33.343Z,100.00
2023-01-24T01:28:00.617Z,100.00
2023-01-24T01:30:29.113Z,100.00
2023-01-24T01:32:58.587Z,100.00
2023-01-24T01:35:26.109Z,100.00
2023-01-24T01:37:55.551Z,100.00
2023-01-24T01:40:23.216Z,100.00
2023-01-24T01:42:56.339Z,100.00
2023-01-24T01:45:38.509Z,100.00
2023-01-24T01:48:36.792Z,100.00
2023-01-24T01:51:06.019Z,100.00
2023-01-24T01:53:41.112Z,100.00
2023-01-24T01:56:25.271Z,100.00
2023-01-24T01:59:03.506Z,100.00
2023-01-24T02:01:31.054Z,100.00
2023-01-24T02:04:08.992Z,100.00
2023-01-24T02:06:51.320Z,100.00
2023-01-24T02:09:25.257Z,100.00
2023-01-24T02:11:55.861Z,100.00
2023-01-24T02:14:44.232Z,100.00
2023-01-24T02:17:11.879Z,100.00
2023-01-24T02:20:01.146Z,100.00
2023-01-24T02:22:59.454Z,100.00
2023-01-24T02:25:54.904Z,100.00
2023-01-24T02:28:22.458Z,100.00
2023-01-24T02:30:49.928Z,100.00
2023-01-24T02:33:20.934Z,100.00
2023-01-24T02:35:48.602Z,100.00
2023-01-24T02:38:29.778Z,100.00
2023-01-24T02:41:07.725Z,100.00
2023-01-24T02:43:45.644Z,100.00
2023-01-24T02:46:13.156Z,100.00
2023-01-24T02:48:41.604Z,100.00
2023-01-24T02:51:27.581Z,100.00
2023-01-24T02:53:54.953Z,100.00
2023-01-24T02:56:41.239Z,100.00
2023-01-24T02:59:08.385Z,100.00
2023-01-24T03:01:37.834Z,100.00
2023-01-24T03:04:05.504Z,100.00
2023-01-24T03:06:32.734Z,100.00
2023-01-24T03:09:00.223Z,100.00
2023-01-24T03:11:27.625Z,100.00
2023-01-24T03:14:13.786Z,100.00
2023-01-24T03:16:59.465Z,100.00
2023-01-24T03:19:45.113Z,100.00
2023-01-24T03:22:30.725Z,100.00
2023-01-24T03:25:16.274Z,100.00
2023-01-24T03:28:01.955Z,100.00
2023-01-24T03:30:48.179Z,100.00
2023-01-24T03:33:39.962Z,100.00
2023-01-24T03:36:09.314Z,100.00
2023-01-24T03:38:55.494Z,100.00
2023-01-24T03:41:24.847Z,100.00
2023-01-24T03:43:54.939Z,100.00
2023-01-24T03:46:22.250Z,100.00
2023-01-24T03:48:51.736Z,100.00
2023-01-24T03:51:45.584Z,100.00
2023-01-24T03:54:12.788Z,100.00
2023-01-24T03:56:41.267Z,100.00
2023-01-24T03:59:08.808Z,100.00
2023-01-24T04:01:36.230Z,100.00
2023-01-24T04:04:03.376Z,100.00
2023-01-24T04:06:30.635Z,100.00
2023-01-24T04:08:57.971Z,100.00
2023-01-24T04:11:25.456Z,100.00
2023-01-24T04:13:52.937Z,100.00
2023-01-24T04:16:20.498Z,100.00
2023-01-24T04:18:54.000Z,100.00
2023-01-24T04:21:21.287Z,100.00
2023-01-24T04:23:48.396Z,100.00
2023-01-24T04:26:15.922Z,100.00
2023-01-24T04:28:44.357Z,100.00
2023-01-24T04:31:11.853Z,100.00
2023-01-24T04:33:39.206Z,100.00
2023-01-24T04:36:07.189Z,100.00
2023-01-24T04:38:34.638Z,100.00
2023-01-24T04:41:02.908Z,100.00
2023-01-24T04:43:30.345Z,100.00
2023-01-24T04:45:59.933Z,100.00
2023-01-24T04:48:28.119Z,100.00
2023-01-24T04:51:02.009Z,100.00
2023-01-24T04:53:31.003Z,100.00
2023-01-24T04:56:03.137Z,100.00
2023-01-24T04:58:30.363Z,100.00
2023-01-24T05:00:59.469Z,100.00
2023-01-24T05:03:27.260Z,100.00
2023-01-24T05:05:55.290Z,100.00
2023-01-24T05:08:24.721Z,100.00
2023-01-24T05:10:53.515Z,100.00
2023-01-24T05:13:20.748Z,100.00
2023-01-24T05:15:51.348Z,100.00
2023-01-24T05:18:20.743Z,100.00
2023-01-24T05:20:48.251Z,100.00
2023-01-24T05:23:17.311Z,100.00
2023-01-24T05:25:46.497Z,100.00
2023-01-24T05:28:14.032Z,100.00
2023-01-24T05:30:41.517Z,100.00
2023-01-24T05:33:09.098Z,100.00
2023-01-24T05:35:36.366Z,100.00
2023-01-24T05:38:03.451Z,100.00
2023-01-24T05:40:30.767Z,100.00
2023-01-24T05:42:58.247Z,100.00
2023-01-24T05:45:25.875Z,100.00
2023-01-24T05:47:59.315Z,100.00
2023-01-24T05:50:26.638Z,100.00
2023-01-24T05:52:53.685Z,100.00
2023-01-24T05:55:23.576Z,100.00
2023-01-24T05:57:52.224Z,100.00
2023-01-24T06:00:20.027Z,100.00
2023-01-24T06:02:47.345Z,100.00
2023-01-24T06:05:14.782Z,100.00
2023-01-24T06:07:48.218Z,100.00
2023-01-24T06:10:15.476Z,100.00
2023-01-24T06:12:48.706Z,100.00
2023-01-24T06:15:23.716Z,100.00
2023-01-24T06:17:51.307Z,100.00
2023-01-24T06:20:24.523Z,100.00
2023-01-24T06:22:54.651Z,100.00
2023-01-24T06:25:25.362Z,100.00
2023-01-24T06:27:53.577Z,100.00
2023-01-24T06:30:21.499Z,100.00
2023-01-24T06:33:04.042Z,100.00
2023-01-24T06:36:08.635Z,100.00
2023-01-24T06:38:36.207Z,100.00
2023-01-24T06:41:03.703Z,100.00
2023-01-24T06:43:37.290Z,100.00
2023-01-24T06:46:05.528Z,100.00
2023-01-24T06:48:32.930Z,100.00
2023-01-24T06:51:00.880Z,100.00
2023-01-24T06:53:28.432Z,100.00
2023-01-24T06:55:55.788Z,100.00
2023-01-24T06:58:23.766Z,100.00
2023-01-24T07:00:53.615Z,100.00
2023-01-24T07:03:21.694Z,100.00
2023-01-24T07:05:50.048Z,100.00
2023-01-24T07:08:21.740Z,100.00
2023-01-24T07:10:49.421Z,100.00
2023-01-24T07:13:18.994Z,100.00
2023-01-24T07:15:46.401Z,100.00
2023-01-24T07:18:15.009Z,100.00
2023-01-24T07:20:42.537Z,100.00
2023-01-24T07:23:23.032Z,100.00
2023-01-24T07:25:54.286Z,100.00
2023-01-24T07:28:22.656Z,100.00
2023-01-24T07:30:50.526Z,100.00
2023-01-24T07:33:18.946Z,100.00
2023-01-24T07:35:48.627Z,100.00
2023-01-24T07:38:16.944Z,100.00
2023-01-24T07:40:44.457Z,100.00
2023-01-24T07:43:19.915Z,100.00
2023-01-24T07:45:47.711Z,100.00
2023-01-24T07:48:22.119Z,100.00
2023-01-24T07:50:49.558Z,100.00
2023-01-24T07:53:17.112Z,100.00
2023-01-24T07:56:00.554Z,100.00
2023-01-24T07:58:29.225Z,100.00
2023-01-24T08:00:56.511Z,100.00
2023-01-24T08:03:27.549Z,100.00
2023-01-24T08:05:55.587Z,100.00
2023-01-24T08:08:22.788Z,100.00
2023-01-24T08:10:49.827Z,100.00
2023-01-24T08:13:17.129Z,100.00
2023-01-24T08:15:44.646Z,100.00
2023-01-24T08:18:12.325Z,100.00
2023-01-24T08:20:39.547Z,100.00
2023-01-24T08:23:06.632Z,100.00
2023-01-24T08:25:35.305Z,100.00
2023-01-24T08:28:03.572Z,100.00
2023-01-24T08:30:30.896Z,100.00
2023-01-24T08:33:05.596Z,100.00
2023-01-24T08:35:34.443Z,100.00
2023-01-24T08:38:01.613Z,100.00
2023-01-24T08:40:33.120Z,100.00
2023-01-24T08:43:05.421Z,100.00
2023-01-24T08:45:32.800Z,100.00
2023-01-24T08:48:00.312Z,100.00
2023-01-24T08:50:27.985Z,100.00
2023-01-24T08:52:59.921Z,100.00
2023-01-24T08:55:30.630Z,100.00
2023-01-24T08:58:03.087Z,100.00
2023-01-24T09:00:31.445Z,100.00
2023-01-24T09:03:02.116Z,100.00
2023-01-24T09:05:31.017Z,100.00
2023-01-24T09:07:58.536Z,100.00
2023-01-24T09:10:25.963Z,100.00
2023-01-24T09:12:53.014Z,100.00
2023-01-24T09:15:20.125Z,100.00
2023-01-24T09:17:48.469Z,100.00
2023-01-24T09:20:16.229Z,100.00
2023-01-24T09:22:43.600Z,100.00
2023-01-24T09:25:11.032Z,100.00
2023-01-24T09:27:38.374Z,100.00
2023-01-24T09:30:08.329Z,100.00
2023-01-24T09:32:36.759Z,100.00
2023-01-24T09:35:04.868Z,100.00
2023-01-24T09:37:32.177Z,100.00
2023-01-24T09:40:00.968Z,100.00
2023-01-24T09:42:42.350Z,100.00
2023-01-24T09:45:19.452Z,100.00
2023-01-24T09:48:02.671Z,100.00
2023-01-24T09:50:50.677Z,100.00
2023-01-24T09:53:21.876Z,100.00
2023-01-24T09:55:49.222Z,100.00
2023-01-24T09:58:32.831Z,100.00
2023-01-24T10:01:10.816Z,100.00
2023-01-24T10:03:43.488Z,100.00
2023-01-24T10:06:28.007Z,100.00
2023-01-24T10:09:13.859Z,100.00
2023-01-24T10:12:02.973Z,100.00
2023-01-24T10:14:46.078Z,100.00
2023-01-24T10:17:37.925Z,100.00
2023-01-24T10:20:29.158Z,100.00
2023-01-24T10:23:09.522Z,100.00
2023-01-24T10:25:52.089Z,100.00
2023-01-24T10:28:35.031Z,100.00
2023-01-24T10:31:02.426Z,100.00
2023-01-24T10:33:34.492Z,100.00
2023-01-24T10:36:36.395Z,100.00
2023-01-24T10:39:03.772Z,100.00
2023-01-24T10:41:33.684Z,100.00
2023-01-24T10:44:12.307Z,100.00
2023-01-24T10:47:11.405Z,100.00
2023-01-24T10:49:42.303Z,100.00
2023-01-24T10:52:12.510Z,100.00
2023-01-24T10:54:56.592Z,100.00
2023-01-24T10:57:38.416Z,100.00
2023-01-24T11:00:34.459Z,99.51
2023-01-24T11:03:04.943Z,98.95
2023-01-24T11:05:41.758Z,98.32
2023-01-24T11:08:19.781Z,98.21
2023-01-24T11:10:47.859Z,97.94
2023-01-24T11:13:30.065Z,97.72
2023-01-24T11:16:16.307Z,97.79
2023-01-24T11:19:06.786Z,98.26
2023-01-24T11:21:41.533Z,98.44
2023-01-24T11:24:14.392Z,98.35
2023-01-24T11:27:21.034Z,98.54
2023-01-24T11:30:20.937Z,98.00
2023-01-24T11:33:25.231Z,98.23
2023-01-24T11:36:08.417Z,98.07
2023-01-24T11:38:43.801Z,98.24
2023-01-24T11:41:25.826Z,99.07
2023-01-24T11:44:26.996Z,100.00
2023-01-24T11:47:12.347Z,100.00
2023-01-24T11:49:59.669Z,100.00
2023-01-24T11:52:48.344Z,100.00
2023-01-24T11:55:37.501Z,100.00
2023-01-24T11:58:12.886Z,100.00
2023-01-24T12:00:52.720Z,100.00
2023-01-24T12:03:55.076Z,100.00
2023-01-24T12:07:23.182Z,100.00
2023-01-24T12:10:03.085Z,100.00
2023-01-24T12:12:55.515Z,100.00
2023-01-24T12:15:39.988Z,100.00
2023-01-24T12:18:25.349Z,100.00
2023-01-24T12:20:59.224Z,100.00
2023-01-24T12:23:56.012Z,100.00
2023-01-24T12:26:29.378Z,100.00
2023-01-24T12:29:07.995Z,100.00
2023-01-24T12:31:53.697Z,100.00
2023-01-24T12:34:29.981Z,100.00
2023-01-24T12:37:10.282Z,100.00
2023-01-24T12:40:00.813Z,100.00
2023-01-24T12:42:45.220Z,100.00
2023-01-24T12:45:18.247Z,100.00
2023-01-24T12:48:01.596Z,100.00
2023-01-24T12:50:50.620Z,100.00
2023-01-24T12:53:33.197Z,100.00
2023-01-24T12:56:22.239Z,100.00
2023-01-24T12:58:53.164Z,100.00
2023-01-24T13:01:32.921Z,100.00
2023-01-24T13:04:24.592Z,100.00
2023-01-24T13:07:03.861Z,100.00
2023-01-24T13:09:49.504Z,100.00
2023-01-24T13:12:23.947Z,100.00
2023-01-24T13:14:58.094Z,100.00
2023-01-24T13:18:03.344Z,100.00
2023-01-24T13:20:58.451Z,100.00
2023-01-24T13:23:50.225Z,100.00
2023-01-24T13:26:54.585Z,100.00
2023-01-24T13:29:46.320Z,100.00
2023-01-24T13:32:16.759Z,100.00
2023-01-24T13:34:48.718Z,100.00
2023-01-24T13:37:24.578Z,100.00
2023-01-24T13:40:15.043Z,100.00
2023-01-24T13:42:43.389Z,100.00
2023-01-24T13:45:32.359Z,100.00
2023-01-24T13:48:02.023Z,100.00
2023-01-24T13:50:30.729Z,100.00
2023-01-24T13:53:02.857Z,100.00
2023-01-24T13:55:31.286Z,100.00
2023-01-24T13:58:21.209Z,100.00
2023-01-24T14:00:53.544Z,100.00
2023-01-24T14:03:31.930Z,100.00
2023-01-24T14:06:04.017Z,100.00
2023-01-24T14:08:31.042Z,100.00
2023-01-24T14:11:04.294Z,100.00
2023-01-24T14:14:03.635Z,100.00
2023-01-24T14:16:38.717Z,100.00
2023-01-24T14:19:47.319Z,100.00
2023-01-24T14:22:22.102Z,100.00
2023-01-24T14:25:19.678Z,100.00
2023-01-24T14:27:58.837Z,100.00
2023-01-24T14:30:39.868Z,100.00
2023-01-24T14:33:33.884Z,100.00
2023-01-24T14:36:34.806Z,100.00
2023-01-24T14:39:27.357Z,100.00
2023-01-24T14:42:06.069Z,100.00
2023-01-24T14:44:38.600Z,100.00
2023-01-24T14:47:22.103Z,100.00
2023-01-24T14:50:00.116Z,100.00
2023-01-24T14:52:34.249Z,100.00
2023-01-24T14:55:28.826Z,100.00
2023-01-24T14:57:56.267Z,100.00
2023-01-24T15:00:25.021Z,100.00
2023-01-24T15:02:53.818Z,100.00
2023-01-24T15:05:28.798Z,100.00
2023-01-24T15:08:00.921Z,100.00
2023-01-24T15:10:45.439Z,100.00
2023-01-24T15:13:44.912Z,100.00
2023-01-24T15:16:21.266Z,100.00
2023-01-24T15:18:53.022Z,100.00
2023-01-24T15:21:27.708Z,100.00
2023-01-24T15:23:58.786Z,100.00
2023-01-24T15:26:38.823Z,100.00
2023-01-24T15:29:43.574Z,100.00
2023-01-24T15:32:30.879Z,100.00
2023-01-24T15:35:31.523Z,100.00
2023-01-24T15:38:18.742Z,100.00
2023-01-24T15:40:59.773Z,100.00
2023-01-24T15:43:48.380Z,100.00
2023-01-24T15:46:41.698Z,100.00
2023-01-24T15:49:34.343Z,100.00
2023-01-24T15:52:23.131Z,100.00
2023-01-24T15:55:01.777Z,100.00
2023-01-24T15:57:39.302Z,100.00
2023-01-24T16:00:11.831Z,100.00
2023-01-24T16:02:39.341Z,100.00
2023-01-24T16:05:18.665Z,100.00
2023-01-24T16:07:46.566Z,100.00
2023-01-24T16:10:14.882Z,100.00
2023-01-24T16:12:42.373Z,100.00
2023-01-24T16:15:21.684Z,100.00
2023-01-24T16:17:48.956Z,100.00
2023-01-24T16:20:22.011Z,100.00
2023-01-24T16:22:50.100Z,100.00
2023-01-24T16:25:20.372Z,100.00
2023-01-24T16:27:51.118Z,100.00
2023-01-24T16:30:22.774Z,100.00
2023-01-24T16:32:51.335Z,100.00
2023-01-24T16:35:19.586Z,100.00
2023-01-24T16:37:46.996Z,100.00
2023-01-24T16:40:17.731Z,100.00
2023-01-24T16:42:47.740Z,100.00
2023-01-24T16:45:20.305Z,100.00
2023-01-24T16:47:48.776Z,100.00
2023-01-24T16:50:17.584Z,100.00
2023-01-24T16:52:47.574Z,100.00
2023-01-24T16:55:16.058Z,100.00
2023-01-24T16:57:43.751Z,100.00
2023-01-24T17:00:13.960Z,100.00
2023-01-24T17:02:42.435Z,100.00
2023-01-24T17:05:11.256Z,100.00
2023-01-24T17:07:39.277Z,100.00
2023-01-24T17:10:07.770Z,100.00
2023-01-24T17:12:45.336Z,100.00
2023-01-24T17:15:13.440Z,100.00
2023-01-24T17:17:41.129Z,100.00
2023-01-24T17:20:12.114Z,100.00
2023-01-24T17:22:41.054Z,100.00
2023-01-24T17:25:10.066Z,100.00
2023-01-24T17:27:44.824Z,100.00
2023-01-24T17:30:12.825Z,100.00
2023-01-24T17:32:44.055Z,100.00
2023-01-24T17:35:13.732Z,100.00
2023-01-24T17:37:45.482Z,100.00
2023-01-24T17:40:13.432Z,100.00
2023-01-24T17:42:41.405Z,100.00
2023-01-24T17:45:09.384Z,100.00
2023-01-24T17:47:37.677Z,100.00
2023-01-24T17:50:05.981Z,100.00
2023-01-24T17:52:33.694Z,100.00
2023-01-24T17:55:01.015Z,100.00
2023-01-24T17:57:29.531Z,100.00
2023-01-24T17:59:58.357Z,100.00
2023-01-24T18:02:25.870Z,100.00
2023-01-24T18:04:55.429Z,100.00
2023-01-24T18:07:23.370Z,100.00
2023-01-24T18:09:51.367Z,100.00
2023-01-24T18:12:19.160Z,100.00
2023-01-24T18:14:50.774Z,100.00
2023-01-24T18:17:20.640Z,100.00
2023-01-24T18:19:48.059Z,100.00
2023-01-24T18:22:15.941Z,100.00
2023-01-24T18:24:43.827Z,100.00
2023-01-24T18:27:12.651Z,100.00
2023-01-24T18:29:40.749Z,100.00
2023-01-24T18:32:08.823Z,100.00
2023-01-24T18:34:36.690Z,100.00
2023-01-24T18:37:10.799Z,100.00
2023-01-24T18:39:39.663Z,100.00
2023-01-24T18:42:08.567Z,100.00
2023-01-24T18:44:37.348Z,100.00
2023-01-24T18:47:06.008Z,100.00
2023-01-24T18:49:33.910Z,100.00
2023-01-24T18:52:02.435Z,100.00
2023-01-24T18:54:33.026Z,100.00
2023-01-24T18:57:02.377Z,100.00
2023-01-24T18:59:30.348Z,100.00
2023-01-24T19:01:59.687Z,100.00
2023-01-24T19:04:28.628Z,100.00
2023-01-24T19:07:04.601Z,100.00
2023-01-24T19:09:34.522Z,100.00
2023-01-24T19:12:03.934Z,100.00
2023-01-24T19:14:32.947Z,100.00
2023-01-24T19:17:01.887Z,100.00
2023-01-24T19:19:32.108Z,100.00
2023-01-24T19:22:00.484Z,100.00
2023-01-24T19:24:35.785Z,100.00
2023-01-24T19:27:04.697Z,100.00
2023-01-24T19:29:33.166Z,100.00
2023-01-24T19:32:02.330Z,100.00
2023-01-24T19:34:30.641Z,100.00
2023-01-24T19:36:59.157Z,100.00
2023-01-24T19:39:27.779Z,100.00
2023-01-24T19:41:55.656Z,100.00
2023-01-24T19:44:26.806Z,100.00
2023-01-24T19:46:55.904Z,100.00
2023-01-24T19:49:24.502Z,100.00
2023-01-24T19:51:52.089Z,100.00
2023-01-24T19:54:21.693Z,100.00
2023-01-24T19:56:55.416Z,100.00
2023-01-24T19:59:25.199Z,100.00
2023-01-24T20:01:55.153Z,100.00
2023-01-24T20:04:25.403Z,100.00
2023-01-24T20:06:56.799Z,100.00
2023-01-24T20:09:25.427Z,100.00
2023-01-24T20:11:54.583Z,100.00
2023-01-24T20:14:23.073Z,100.00
2023-01-24T20:16:52.286Z,100.00
2023-01-24T20:19:29.669Z,100.00
2023-01-24T20:22:01.727Z,100.00
2023-01-24T20:24:30.816Z,100.00
2023-01-24T20:26:59.091Z,100.00
2023-01-24T20:29:30.624Z,100.00
2023-01-24T20:32:12.035Z,100.00
2023-01-24T20:34:46.138Z,100.00
2023-01-24T20:37:15.739Z,100.00
2023-01-24T20:39:44.689Z,100.00
2023-01-24T20:42:13.475Z,100.00
2023-01-24T20:44:43.180Z,100.00
2023-01-24T20:47:11.365Z,100.00
2023-01-24T20:49:39.533Z,100.00
2023-01-24T20:52:14.583Z,100.00
2023-01-24T20:54:43.337Z,100.00
2023-01-24T20:57:11.559Z,100.00
2023-01-24T20:59:40.536Z,100.00
2023-01-24T21:02:10.909Z,100.00
2023-01-24T21:04:38.655Z,100.00
2023-01-24T21:07:06.355Z,100.00
2023-01-24T21:09:34.586Z,100.00
2023-01-24T21:12:08.373Z,100.00
2023-01-24T21:14:36.449Z,100.00
2023-01-24T21:17:04.097Z,100.00
2023-01-24T21:19:31.913Z,100.00
2023-01-24T21:21:59.662Z,100.00
2023-01-24T21:24:33.221Z,100.00
2023-01-24T21:27:02.800Z,100.00
2023-01-24T21:29:31.035Z,100.00
2023-01-24T21:31:58.614Z,100.00
2023-01-24T21:34:26.371Z,100.00
2023-01-24T21:36:55.339Z,100.00
2023-01-24T21:39:23.259Z,100.00
2023-01-24T21:41:57.277Z,100.00
2023-01-24T21:44:27.224Z,100.00
2023-01-24T21:46:55.488Z,100.00
2023-01-24T21:49:24.069Z,100.00
2023-01-24T21:52:02.082Z,100.00
2023-01-24T21:54:34.376Z,100.00
2023-01-24T21:57:35.111Z,100.00
2023-01-24T22:00:07.131Z,100.00
2023-01-24T22:02:34.493Z,100.00
2023-01-24T22:05:03.032Z,100.00
2023-01-24T22:07:31.971Z,100.00
2023-01-24T22:10:00.968Z,100.00
2023-01-24T22:12:30.595Z,100.00
2023-01-24T22:14:59.296Z,100.00
2023-01-24T22:17:26.999Z,100.00
2023-01-24T22:19:56.849Z,100.00
2023-01-24T22:22:45.302Z,100.00
2023-01-24T22:25:19.953Z,100.00
2023-01-24T22:27:48.305Z,100.00
2023-01-24T22:30:23.759Z,100.00
2023-01-24T22:32:52.388Z,100.00
2023-01-24T22:35:22.696Z,100.00
2023-01-24T22:37:54.971Z,100.00
2023-01-24T22:40:23.854Z,100.00
2023-01-24T22:42:51.329Z,100.00
2023-01-24T22:45:20.912Z,100.00
2023-01-24T22:47:48.118Z,100.00
2023-01-24T22:50:17.000Z,100.00
2023-01-24T22:52:44.624Z,100.00
2023-01-24T22:55:14.605Z,100.00
2023-01-24T22:57:42.991Z,100.00
2023-01-24T23:00:13.347Z,100.00
2023-01-24T23:02:40.443Z,100.00
2023-01-24T23:05:09.797Z,100.00
2023-01-24T23:07:37.457Z,100.00
2023-01-24T23:10:05.542Z,100.00
2023-01-24T23:12:51.251Z,100.00
2023-01-24T23:15:37.542Z,100.00
2023-01-24T23:18:12.682Z,100.00
2023-01-24T23:20:59.001Z,100.00
2023-01-24T23:23:27.226Z,100.00
2023-01-24T23:25:54.689Z,100.00
2023-01-24T23:28:22.070Z,100.00
2023-01-24T23:31:04.390Z,100.00
2023-01-24T23:33:40.085Z,100.00
2023-01-24T23:36:10.072Z,100.00
2023-01-24T23:38:37.437Z,100.00
2023-01-24T23:41:09.334Z,100.00
2023-01-24T23:43:36.657Z,100.00
2023-01-24T23:46:10.006Z,100.00
2023-01-24T23:48:37.965Z,100.00
2023-01-24T23:51:05.884Z,100.00
2023-01-24T23:53:34.046Z,100.00
2023-01-24T23:56:01.692Z,100.00
2023-01-24T23:58:31.170Z,100.00
